Time;durP1;ratioP1;P1;durP2;ratioP2;P2;SDS_P1;SDS_P2;PMS_P1;PMS_P2;Temp;Humidity;BMP_temperature;BMP_pressure;BME280_temperature;BME280_humidity;BME280_pressure;Samples;Min_cycle;Max_cycle;Signal;HPM_P1;HPM_P2
2022/05/13 00:01:50;;;;;;;4.50;3.77;;;;;;;;;;5066914;28;20432;-79
2022/05/13 00:04:16;;;;;;;3.93;3.50;;;;;;;;;;5065469;28;21428;-76
2022/05/13 00:06:42;;;;;;;4.23;3.77;;;;;;;;;;5067256;28;20448;-77
2022/05/13 00:09:08;;;;;;;3.33;3.23;;;;;;;;;;5066124;28;20448;-78
2022/05/13 00:11:34;;;;;;;3.40;3.20;;;;;;;;;;5065741;28;20456;-74
2022/05/13 00:14:01;;;;;;;3.50;3.40;;;;;;;;;;5064977;28;20921;-73
2022/05/13 00:16:27;;;;;;;4.20;3.03;;;;;;;;;;5064576;28;20453;-77
2022/05/13 00:18:53;;;;;;;3.40;3.30;;;;;;;;;;5064078;28;20430;-78
2022/05/13 00:21:19;;;;;;;3.07;2.77;;;;;;;;;;5068118;28;20429;-75
2022/05/13 00:23:45;;;;;;;3.23;3.03;;;;;;;;;;5068904;28;20434;-72
2022/05/13 00:26:11;;;;;;;3.00;2.80;;;;;;;;;;5061903;28;20437;-79
2022/05/13 00:28:37;;;;;;;3.47;2.70;;;;;;;;;;5064388;28;20430;-78
2022/05/13 00:31:04;;;;;;;3.20;3.10;;;;;;;;;;5066570;28;20477;-75
2022/05/13 00:33:31;;;;;;;2.70;2.70;;;;;;;;;;5067794;28;20955;-80
2022/05/13 00:35:57;;;;;;;3.37;3.17;;;;;;;;;;5065158;28;20455;-77
2022/05/13 00:38:23;;;;;;;2.97;2.77;;;;;;;;;;5066678;28;20437;-80
2022/05/13 00:40:49;;;;;;;3.17;3.07;;;;;;;;;;5066687;28;21379;-79
2022/05/13 00:43:35;;;;;;;4.00;3.70;;;;;;;;;;5065201;28;20421;-79
2022/05/13 00:46:03;;;;;;;10.10;3.80;;;;;;;;;;5067126;28;20431;-76
2022/05/13 00:48:29;;;;;;;3.77;3.47;;;;;;;;;;5067270;28;20479;-78
2022/05/13 00:50:55;;;;;;;3.60;3.50;;;;;;;;;;5071788;28;20488;-76
2022/05/13 00:53:21;;;;;;;8.73;3.60;;;;;;;;;;5068381;28;20426;-77
2022/05/13 00:55:47;;;;;;;3.73;3.53;;;;;;;;;;5067276;28;21127;-79
2022/05/13 00:58:17;;;;;;;4.87;3.20;;;;;;;;;;5070440;28;20513;-79
2022/05/13 01:00:43;;;;;;;3.50;3.27;;;;;;;;;;5068486;28;20444;-76
2022/05/13 01:03:11;;;;;;;3.43;3.33;;;;;;;;;;5066079;28;20430;-75
2022/05/13 01:05:37;;;;;;;3.33;3.20;;;;;;;;;;5069006;28;20433;-77
2022/05/13 01:08:06;;;;;;;3.40;3.20;;;;;;;;;;5069257;28;20420;-79
2022/05/13 01:10:33;;;;;;;3.10;3.00;;;;;;;;;;5066194;28;20980;-80
2022/05/13 01:12:59;;;;;;;4.40;3.97;;;;;;;;;;5067476;28;20433;-79
2022/05/13 01:15:28;;;;;;;3.43;3.33;;;;;;;;;;5068976;28;20437;-80
2022/05/13 01:18:06;;;;;;;3.60;3.33;;;;;;;;;;5069267;28;20453;-79
2022/05/13 01:20:32;;;;;;;3.57;3.20;;;;;;;;;;5070174;28;20951;-78
2022/05/13 01:23:00;;;;;;;8.40;3.10;;;;;;;;;;5070976;28;20417;-79
2022/05/13 01:25:27;;;;;;;3.57;3.23;;;;;;;;;;5068589;28;20180;-81
2022/05/13 01:27:54;;;;;;;3.70;3.60;;;;;;;;;;5068250;28;20425;-77
2022/05/13 01:30:22;;;;;;;3.90;3.60;;;;;;;;;;5067483;28;20837;-80
2022/05/13 01:32:48;;;;;;;7.90;3.40;;;;;;;;;;5067118;28;20433;-79
2022/05/13 01:35:14;;;;;;;3.73;3.70;;;;;;;;;;5070850;28;20534;-79
2022/05/13 01:37:40;;;;;;;3.30;3.10;;;;;;;;;;5069022;28;20418;-80
2022/05/13 01:40:07;;;;;;;3.93;3.73;;;;;;;;;;5068052;28;20516;-79
2022/05/13 01:42:33;;;;;;;3.30;3.07;;;;;;;;;;5069339;28;20603;-75
2022/05/13 01:45:00;;;;;;;4.60;4.00;;;;;;;;;;5070844;28;20433;-77
2022/05/13 01:47:27;;;;;;;4.67;4.13;;;;;;;;;;5068735;28;20470;-76
2022/05/13 01:49:53;;;;;;;8.33;3.23;;;;;;;;;;5066997;28;20989;-74
2022/05/13 01:52:19;;;;;;;3.40;3.30;;;;;;;;;;5068287;28;20491;-74
2022/05/13 01:54:46;;;;;;;7.13;3.80;;;;;;;;;;5069917;28;20452;-74
2022/05/13 01:57:12;;;;;;;3.50;3.30;;;;;;;;;;5068915;28;20460;-76
2022/05/13 01:59:38;;;;;;;3.30;3.10;;;;;;;;;;5066866;28;20463;-75
2022/05/13 02:02:04;;;;;;;3.63;3.43;;;;;;;;;;5069439;28;20422;-79
2022/05/13 02:04:31;;;;;;;3.33;3.20;;;;;;;;;;5069076;28;20465;-79
2022/05/13 02:06:57;;;;;;;4.00;3.70;;;;;;;;;;5068731;28;20434;-79
2022/05/13 02:09:23;;;;;;;3.60;3.50;;;;;;;;;;5070052;28;20433;-78
2022/05/13 02:11:50;;;;;;;3.30;3.10;;;;;;;;;;5069010;28;20961;-77
2022/05/13 02:14:17;;;;;;;3.97;3.77;;;;;;;;;;5066294;28;20432;-79
2022/05/13 02:16:43;;;;;;;3.83;3.73;;;;;;;;;;5068517;28;20516;-78
2022/05/13 02:19:09;;;;;;;5.57;3.70;;;;;;;;;;5069084;28;20795;-75
2022/05/13 02:21:35;;;;;;;4.30;4.10;;;;;;;;;;5064944;28;20433;-78
2022/05/13 02:24:01;;;;;;;3.37;3.17;;;;;;;;;;5069548;28;20429;-77
2022/05/13 02:26:27;;;;;;;4.23;4.03;;;;;;;;;;5067427;28;20445;-78
2022/05/13 02:28:53;;;;;;;5.27;3.90;;;;;;;;;;5065701;28;20508;-76
2022/05/13 02:31:20;;;;;;;3.53;3.40;;;;;;;;;;5065320;28;20480;-78
2022/05/13 02:33:46;;;;;;;4.03;3.77;;;;;;;;;;5070545;28;20433;-80
2022/05/13 02:36:12;;;;;;;4.47;4.07;;;;;;;;;;5068484;28;20460;-79
2022/05/13 02:38:39;;;;;;;5.07;4.63;;;;;;;;;;5069645;28;20421;-80
2022/05/13 02:41:11;;;;;;;3.63;3.33;;;;;;;;;;5065065;28;20805;-76
2022/05/13 02:43:38;;;;;;;6.93;3.70;;;;;;;;;;5065744;28;20429;-75
2022/05/13 02:46:04;;;;;;;14.03;4.40;;;;;;;;;;5066163;28;20433;-80
2022/05/13 02:48:30;;;;;;;4.77;3.30;;;;;;;;;;5067226;28;20473;-80
2022/05/13 02:50:56;;;;;;;3.20;3.10;;;;;;;;;;5069169;28;20480;-76
2022/05/13 02:53:23;;;;;;;4.50;4.10;;;;;;;;;;5065404;28;20441;-80
2022/05/13 02:55:49;;;;;;;5.13;3.90;;;;;;;;;;5069748;28;20810;-78
2022/05/13 02:58:15;;;;;;;4.00;3.83;;;;;;;;;;5067538;28;20421;-80
2022/05/13 03:00:41;;;;;;;7.27;3.90;;;;;;;;;;5067773;28;20421;-74
2022/05/13 03:03:07;;;;;;;3.80;3.50;;;;;;;;;;5065304;28;21785;-72
2022/05/13 03:05:34;;;;;;;4.77;4.47;;;;;;;;;;5066794;28;20464;-78
2022/05/13 03:08:01;;;;;;;5.03;4.50;;;;;;;;;;5067333;28;20421;-79
2022/05/13 03:10:31;;;;;;;9.73;6.70;;;;;;;;;;5066841;28;20538;-76
2022/05/13 03:12:58;;;;;;;6.40;3.97;;;;;;;;;;5069100;28;20421;-74
2022/05/13 03:15:24;;;;;;;4.13;3.70;;;;;;;;;;5065549;28;20441;-80
2022/05/13 03:17:50;;;;;;;5.00;4.40;;;;;;;;;;5068084;28;20445;-79
2022/05/13 03:20:17;;;;;;;4.97;4.60;;;;;;;;;;5068697;28;20469;-79
2022/05/13 03:22:44;;;;;;;4.17;4.07;;;;;;;;;;5069797;28;20432;-79
2022/05/13 03:25:10;;;;;;;6.23;4.83;;;;;;;;;;5066078;28;20440;-80
2022/05/13 03:27:36;;;;;;;4.60;4.40;;;;;;;;;;5066273;28;20901;-81
2022/05/13 03:30:02;;;;;;;4.43;4.13;;;;;;;;;;5067954;28;20489;-80
2022/05/13 03:32:28;;;;;;;6.00;4.33;;;;;;;;;;5063019;28;20522;-79
2022/05/13 03:34:54;;;;;;;4.53;4.30;;;;;;;;;;5067730;28;20885;-80
2022/05/13 03:37:20;;;;;;;4.80;4.57;;;;;;;;;;5067347;28;20763;-80
2022/05/13 03:39:46;;;;;;;4.93;4.57;;;;;;;;;;5067371;28;20766;-80
2022/05/13 03:42:12;;;;;;;8.23;4.43;;;;;;;;;;5068462;28;20520;-77
2022/05/13 03:44:38;;;;;;;5.40;4.93;;;;;;;;;;5067102;28;20446;-77
2022/05/13 03:47:04;;;;;;;14.93;4.67;;;;;;;;;;5067737;28;20426;-77
2022/05/13 03:49:31;;;;;;;5.20;4.70;;;;;;;;;;5065757;28;20520;-72
2022/05/13 03:51:57;;;;;;;6.10;4.53;;;;;;;;;;5065920;28;20441;-79
2022/05/13 03:54:23;;;;;;;8.73;4.60;;;;;;;;;;5069100;28;20424;-80
2022/05/13 03:56:49;;;;;;;4.87;4.57;;;;;;;;;;5065583;28;20437;-78
2022/05/13 03:59:15;;;;;;;6.23;5.03;;;;;;;;;;5068174;28;20917;-76
2022/05/13 04:01:41;;;;;;;4.60;4.30;;;;;;;;;;5068716;28;20508;-80
2022/05/13 04:04:08;;;;;;;5.77;5.17;;;;;;;;;;5063376;28;20441;-80
2022/05/13 04:09:18;;;;;;;5.43;5.00;;;;;;;;;;5067307;28;20491;-78
2022/05/13 04:16:04;;;;;;;4.80;4.60;;;;;;;;;;5068337;28;20434;-76
2022/05/13 04:17:17;;;;;;;4.50;4.20;;;;;;;;;;5064000;28;20568;-78
2022/05/13 04:19:43;;;;;;;4.70;4.50;;;;;;;;;;5067394;28;20986;-77
2022/05/13 04:22:13;;;;;;;6.07;5.50;;;;;;;;;;5069559;28;20433;-80
2022/05/13 04:24:39;;;;;;;5.70;5.10;;;;;;;;;;5065923;28;20425;-80
2022/05/13 04:27:05;;;;;;;9.43;5.13;;;;;;;;;;5069039;28;20429;-81
2022/05/13 04:29:33;;;;;;;5.30;4.97;;;;;;;;;;5070334;28;20504;-79
2022/05/13 04:31:59;;;;;;;4.23;3.97;;;;;;;;;;5071343;28;20508;-78
2022/05/13 04:34:25;;;;;;;3.87;3.67;;;;;;;;;;5068838;28;20432;-79
2022/05/13 04:36:51;;;;;;;5.33;4.93;;;;;;;;;;5068826;28;20449;-79
2022/05/13 04:39:17;;;;;;;5.17;4.80;;;;;;;;;;5072741;28;20425;-80
2022/05/13 04:44:28;;;;;;;7.10;4.93;;;;;;;;;;5072640;28;20432;-80
2022/05/13 04:46:54;;;;;;;4.50;4.07;;;;;;;;;;5070519;28;20421;-80
2022/05/13 04:49:20;;;;;;;11.13;5.13;;;;;;;;;;5066314;28;20464;-79
2022/05/13 04:51:46;;;;;;;5.30;4.97;;;;;;;;;;5068247;28;20441;-80
2022/05/13 04:54:12;;;;;;;5.87;5.47;;;;;;;;;;5067621;28;20429;-81
2022/05/13 04:56:39;;;;;;;3.97;3.60;;;;;;;;;;5070204;28;20439;-72
2022/05/13 04:59:05;;;;;;;5.17;4.67;;;;;;;;;;5071849;28;20528;-80
2022/05/13 05:01:32;;;;;;;6.30;5.70;;;;;;;;;;5066371;28;20429;-80
2022/05/13 05:03:58;;;;;;;4.50;4.10;;;;;;;;;;5067409;28;20425;-80
2022/05/13 05:06:24;;;;;;;4.87;4.10;;;;;;;;;;5069122;28;20435;-81
2022/05/13 05:08:51;;;;;;;5.30;4.30;;;;;;;;;;5064995;28;20524;-80
2022/05/13 05:11:17;;;;;;;5.00;4.63;;;;;;;;;;5069506;28;20488;-80
2022/05/13 05:13:45;;;;;;;4.37;4.17;;;;;;;;;;5072512;28;20413;-80
2022/05/13 05:16:11;;;;;;;5.10;4.70;;;;;;;;;;5070367;28;20486;-79
2022/05/13 05:18:38;;;;;;;7.87;4.60;;;;;;;;;;5061074;28;20513;-80
2022/05/13 05:21:05;;;;;;;10.80;4.60;;;;;;;;;;5066262;28;20845;-79
2022/05/13 05:23:32;;;;;;;5.93;4.73;;;;;;;;;;5068215;28;20504;-80
2022/05/13 05:25:59;;;;;;;8.90;6.30;;;;;;;;;;5069718;28;20433;-80
2022/05/13 05:28:26;;;;;;;6.53;5.43;;;;;;;;;;5068718;28;21047;-80
2022/05/13 05:30:52;;;;;;;9.50;5.30;;;;;;;;;;5068830;28;20503;-79
2022/05/13 05:33:18;;;;;;;6.23;5.70;;;;;;;;;;5068515;28;20844;-80
2022/05/13 05:35:44;;;;;;;14.20;4.93;;;;;;;;;;5067475;28;20437;-81
2022/05/13 05:38:11;;;;;;;11.73;5.83;;;;;;;;;;5066500;28;20785;-79
2022/05/13 05:40:38;;;;;;;5.87;4.90;;;;;;;;;;5069726;28;20583;-79
2022/05/13 05:43:04;;;;;;;6.30;5.50;;;;;;;;;;5069211;28;20422;-78
2022/05/13 05:45:30;;;;;;;8.17;6.00;;;;;;;;;;5070711;28;20624;-78
2022/05/13 05:47:56;;;;;;;5.60;5.20;;;;;;;;;;5069299;28;20422;-79
2022/05/13 05:50:22;;;;;;;11.93;5.70;;;;;;;;;;5065745;28;20858;-81
2022/05/13 05:52:48;;;;;;;5.43;5.20;;;;;;;;;;5067990;28;20847;-79
2022/05/13 05:58:04;;;;;;;8.77;4.70;;;;;;;;;;5067738;28;20530;-76
2022/05/13 06:00:31;;;;;;;11.40;5.40;;;;;;;;;;5065891;28;20438;-80
2022/05/13 06:02:57;;;;;;;9.77;5.93;;;;;;;;;;5067341;28;20423;-80
2022/05/13 06:05:24;;;;;;;11.60;5.80;;;;;;;;;;5067855;28;20426;-78
2022/05/13 06:07:51;;;;;;;5.90;5.60;;;;;;;;;;5067496;28;20418;-79
2022/05/13 06:10:17;;;;;;;8.20;5.17;;;;;;;;;;5070524;28;20475;-74
2022/05/13 06:12:44;;;;;;;6.40;5.97;;;;;;;;;;5067336;28;20433;-80
2022/05/13 06:15:12;;;;;;;9.80;6.40;;;;;;;;;;5066071;28;20426;-80
2022/05/13 06:17:49;;;;;;;6.47;5.90;;;;;;;;;;5062671;28;20524;-78
2022/05/13 06:20:16;;;;;;;9.63;6.07;;;;;;;;;;5065788;28;20437;-71
2022/05/13 06:22:42;;;;;;;15.68;5.60;;;;;;;;;;5067762;28;20417;-71
2022/05/13 06:25:09;;;;;;;5.80;5.23;;;;;;;;;;5065914;28;20313;-71
2022/05/13 06:27:36;;;;;;;7.70;5.87;;;;;;;;;;5069798;28;20422;-72
2022/05/13 06:30:03;;;;;;;6.73;6.20;;;;;;;;;;5065955;28;20992;-71
2022/05/13 06:32:29;;;;;;;11.40;6.70;;;;;;;;;;5068820;28;20940;-71
2022/05/13 06:34:55;;;;;;;12.83;6.77;;;;;;;;;;5068965;28;20437;-72
2022/05/13 06:37:21;;;;;;;6.53;6.00;;;;;;;;;;5066644;28;20509;-71
2022/05/13 06:39:47;;;;;;;7.70;6.30;;;;;;;;;;5068911;28;20448;-72
2022/05/13 06:42:13;;;;;;;8.00;6.27;;;;;;;;;;5067122;28;20426;-78
2022/05/13 06:44:39;;;;;;;6.77;5.57;;;;;;;;;;5068275;28;20187;-77
2022/05/13 06:47:05;;;;;;;9.73;6.63;;;;;;;;;;5064622;28;20918;-75
2022/05/13 06:49:31;;;;;;;10.37;6.63;;;;;;;;;;5066256;28;20491;-78
2022/05/13 06:51:57;;;;;;;14.00;8.00;;;;;;;;;;5064680;28;20997;-75
2022/05/13 06:54:23;;;;;;;7.17;6.47;;;;;;;;;;5069032;28;21095;-76
2022/05/13 06:56:54;;;;;;;8.63;6.80;;;;;;;;;;5070284;28;20425;-74
2022/05/13 06:59:20;;;;;;;6.70;6.30;;;;;;;;;;5067343;28;20418;-72
2022/05/13 07:01:46;;;;;;;7.23;6.63;;;;;;;;;;5070490;28;20437;-72
2022/05/13 07:04:12;;;;;;;17.77;5.60;;;;;;;;;;5064488;28;20486;-72
2022/05/13 07:06:39;;;;;;;9.13;7.50;;;;;;;;;;5068671;28;20530;-77
2022/05/13 07:09:05;;;;;;;9.70;6.93;;;;;;;;;;5068770;28;20406;-71
2022/05/13 07:11:31;;;;;;;8.50;6.57;;;;;;;;;;5065616;28;20485;-72
2022/05/13 07:13:57;;;;;;;6.83;6.43;;;;;;;;;;5069868;28;20460;-77
2022/05/13 07:16:23;;;;;;;6.40;5.80;;;;;;;;;;5062064;28;20550;-72
2022/05/13 07:18:49;;;;;;;7.27;6.43;;;;;;;;;;5067032;28;20816;-77
2022/05/13 07:21:16;;;;;;;9.23;7.10;;;;;;;;;;5067646;28;21020;-74
2022/05/13 07:23:42;;;;;;;7.60;6.90;;;;;;;;;;5068807;28;20926;-72
2022/05/13 07:26:08;;;;;;;6.93;6.43;;;;;;;;;;5064548;28;20794;-71
2022/05/13 07:28:34;;;;;;;12.23;7.23;;;;;;;;;;5064033;28;20434;-72
2022/05/13 07:31:01;;;;;;;8.97;7.07;;;;;;;;;;5064910;28;21016;-72
2022/05/13 07:33:29;;;;;;;18.17;6.30;;;;;;;;;;5049990;28;20492;-75
2022/05/13 07:35:55;;;;;;;8.07;7.37;;;;;;;;;;5068396;28;20582;-74
2022/05/13 07:38:22;;;;;;;12.10;6.50;;;;;;;;;;5066902;28;20430;-72
2022/05/13 07:43:32;;;;;;;14.97;11.10;;;;;;;;;;5069572;28;20520;-73
2022/05/13 07:45:59;;;;;;;15.37;11.47;;;;;;;;;;5059109;28;20429;-73
2022/05/13 07:48:25;;;;;;;8.90;8.00;;;;;;;;;;5066135;28;21016;-78
2022/05/13 07:50:52;;;;;;;6.40;5.70;;;;;;;;;;5065701;28;20568;-78
2022/05/13 07:53:18;;;;;;;5.07;4.77;;;;;;;;;;5066148;28;20432;-76
2022/05/13 07:55:44;;;;;;;6.43;5.70;;;;;;;;;;5068876;28;20422;-77
2022/05/13 07:58:10;;;;;;;9.43;4.90;;;;;;;;;;5066428;28;20431;-74
2022/05/13 08:00:38;;;;;;;4.70;4.50;;;;;;;;;;5064246;28;21002;-73
2022/05/13 08:03:14;;;;;;;12.33;4.57;;;;;;;;;;5064781;28;20985;-74
2022/05/13 08:05:47;;;;;;;4.03;3.70;;;;;;;;;;5067763;28;20959;-72
2022/05/13 08:08:18;;;;;;;4.27;3.70;;;;;;;;;;5064049;28;20487;-72
2022/05/13 08:10:46;;;;;;;8.17;3.70;;;;;;;;;;5066453;28;20490;-73
2022/05/13 08:13:12;;;;;;;10.73;3.97;;;;;;;;;;5060401;28;20927;-74
2022/05/13 08:15:38;;;;;;;4.80;2.93;;;;;;;;;;5064903;28;20510;-74
2022/05/13 08:18:04;;;;;;;5.13;3.17;;;;;;;;;;5060803;28;20453;-73
2022/05/13 08:20:31;;;;;;;11.17;3.20;;;;;;;;;;5066851;28;20520;-72
2022/05/13 08:22:57;;;;;;;4.73;3.40;;;;;;;;;;5066882;28;20477;-75
2022/05/13 08:25:23;;;;;;;5.80;4.13;;;;;;;;;;5067720;28;20433;-73
2022/05/13 08:27:49;;;;;;;3.47;3.37;;;;;;;;;;5065268;28;20426;-73
2022/05/13 08:30:16;;;;;;;4.80;3.53;;;;;;;;;;5064785;28;20523;-72
2022/05/13 08:32:42;;;;;;;3.80;3.50;;;;;;;;;;5065792;28;21005;-73
2022/05/13 08:35:08;;;;;;;3.40;3.10;;;;;;;;;;5067865;28;20916;-73
2022/05/13 08:37:42;;;;;;;3.10;2.70;;;;;;;;;;5064248;28;20429;-72
2022/05/13 08:40:12;;;;;;;2.57;2.40;;;;;;;;;;5065004;28;20426;-73
2022/05/13 08:42:42;;;;;;;8.60;2.70;;;;;;;;;;5047185;28;20834;-74
2022/05/13 08:45:09;;;;;;;9.00;2.67;;;;;;;;;;5066766;28;20520;-72
2022/05/13 08:47:43;;;;;;;2.63;2.43;;;;;;;;;;5062724;28;20426;-74
2022/05/13 08:50:10;;;;;;;5.77;2.30;;;;;;;;;;5060451;28;20547;-75
2022/05/13 08:55:48;;;;;;;5.63;2.87;;;;;;;;;;5068464;28;20483;-76
2022/05/13 08:58:40;;;;;;;6.63;2.67;;;;;;;;;;5067865;28;20439;-76
2022/05/13 09:01:09;;;;;;;4.43;2.70;;;;;;;;;;5050467;28;20468;-77
2022/05/13 09:03:41;;;;;;;4.90;1.73;;;;;;;;;;5066865;28;20433;-76
2022/05/13 09:06:26;;;;;;;3.97;3.17;;;;;;;;;;5065243;28;20462;-75
2022/05/13 09:08:52;;;;;;;3.37;3.10;;;;;;;;;;5066154;28;20422;-76
2022/05/13 09:11:36;;;;;;;5.50;2.80;;;;;;;;;;5069914;28;20591;-76
2022/05/13 09:14:08;;;;;;;3.80;2.33;;;;;;;;;;5053715;28;20417;-76
2022/05/13 09:16:52;;;;;;;3.13;2.40;;;;;;;;;;5071341;28;20429;-76
2022/05/13 09:19:25;;;;;;;2.50;2.40;;;;;;;;;;5071217;28;20909;-76
2022/05/13 09:21:51;;;;;;;4.00;3.33;;;;;;;;;;5072166;28;20905;-74
2022/05/13 09:24:17;;;;;;;3.37;2.40;;;;;;;;;;5070204;28;20433;-76
2022/05/13 09:26:43;;;;;;;10.87;3.10;;;;;;;;;;5070947;28;20516;-75
2022/05/13 09:29:13;;;;;;;6.10;2.67;;;;;;;;;;5065304;28;20433;-76
2022/05/13 09:32:04;;;;;;;7.33;3.10;;;;;;;;;;5071860;28;20476;-73
2022/05/13 09:34:34;;;;;;;9.30;2.70;;;;;;;;;;5061585;28;20437;-76
2022/05/13 09:37:08;;;;;;;2.83;2.20;;;;;;;;;;5071856;28;20438;-75
2022/05/13 09:39:36;;;;;;;4.53;2.47;;;;;;;;;;5071553;28;20474;-74
2022/05/13 09:42:18;;;;;;;4.67;2.87;;;;;;;;;;5066530;28;20479;-76
2022/05/13 09:44:45;;;;;;;3.17;3.07;;;;;;;;;;5070856;28;20434;-76
2022/05/13 09:47:13;;;;;;;2.30;2.20;;;;;;;;;;5066106;28;20851;-75
2022/05/13 09:49:41;;;;;;;3.20;2.90;;;;;;;;;;5062004;28;20477;-74
2022/05/13 09:52:39;;;;;;;4.47;2.40;;;;;;;;;;5065087;28;20879;-74
2022/05/13 09:55:14;;;;;;;2.00;2.00;;;;;;;;;;5033241;28;20501;-73
2022/05/13 09:57:40;;;;;;;5.90;2.43;;;;;;;;;;5066994;28;20986;-75
2022/05/13 10:00:18;;;;;;;7.30;2.70;;;;;;;;;;5071289;28;20422;-78
2022/05/13 10:02:47;;;;;;;9.73;2.47;;;;;;;;;;5034471;28;20452;-78
2022/05/13 10:05:40;;;;;;;2.13;2.03;;;;;;;;;;5069711;28;20429;-76
2022/05/13 10:08:10;;;;;;;17.53;2.77;;;;;;;;;;5064443;28;20781;-76
2022/05/13 10:16:21;;;;;;;3.90;2.37;;;;;;;;;;5070991;28;20432;-76
2022/05/13 10:18:47;;;;;;;12.70;2.67;;;;;;;;;;5066993;28;20430;-74
2022/05/13 10:21:19;;;;;;;2.43;2.00;;;;;;;;;;5069026;28;20422;-76
2022/05/13 10:23:52;;;;;;;6.37;2.50;;;;;;;;;;5071143;28;20533;-76
2022/05/13 10:26:20;;;;;;;3.17;2.70;;;;;;;;;;5068668;28;20818;-79
2022/05/13 10:28:52;;;;;;;3.30;2.13;;;;;;;;;;5069559;28;20465;-80
2022/05/13 10:31:20;;;;;;;2.50;2.10;;;;;;;;;;5067949;28;20473;-79
2022/05/13 10:33:49;;;;;;;7.50;2.60;;;;;;;;;;5067937;28;20654;-73
2022/05/13 10:36:15;;;;;;;8.20;2.73;;;;;;;;;;5069161;28;20430;-80
2022/05/13 10:38:47;;;;;;;6.63;2.67;;;;;;;;;;5068022;28;20773;-76
2022/05/13 10:41:32;;;;;;;2.50;2.40;;;;;;;;;;5068008;28;20538;-67
2022/05/13 10:44:01;;;;;;;8.03;2.37;;;;;;;;;;5067857;28;20504;-77
2022/05/13 10:46:47;;;;;;;3.90;3.27;;;;;;;;;;5067310;28;20510;-76
2022/05/13 10:49:14;;;;;;;1.80;1.80;;;;;;;;;;5068935;28;20474;-78
2022/05/13 10:51:40;;;;;;;5.00;2.33;;;;;;;;;;5066778;28;20484;-79
2022/05/13 10:54:15;;;;;;;2.47;2.20;;;;;;;;;;5067905;28;20467;-78
2022/05/13 10:56:47;;;;;;;6.63;1.97;;;;;;;;;;5067582;28;20516;-75
2022/05/13 10:59:16;;;;;;;7.67;2.33;;;;;;;;;;5069009;28;20465;-76
2022/05/13 11:01:48;;;;;;;5.60;2.33;;;;;;;;;;5068828;28;20512;-74
2022/05/13 11:04:15;;;;;;;4.93;2.83;;;;;;;;;;5069908;28;20421;-78
2022/05/13 11:06:45;;;;;;;1.80;1.70;;;;;;;;;;5066813;28;20426;-76
2022/05/13 11:09:17;;;;;;;2.30;1.80;;;;;;;;;;5064986;28;20881;-76
2022/05/13 11:11:44;;;;;;;5.03;2.33;;;;;;;;;;5070046;28;20507;-76
2022/05/13 11:14:15;;;;;;;2.23;2.13;;;;;;;;;;5069762;28;20418;-76
2022/05/13 11:16:44;;;;;;;7.93;1.80;;;;;;;;;;5068117;28;20497;-77
2022/05/13 11:19:20;;;;;;;7.40;2.20;;;;;;;;;;5067980;28;20836;-77
2022/05/13 11:21:46;;;;;;;2.10;2.00;;;;;;;;;;5069355;28;20517;-77
2022/05/13 11:27:05;;;;;;;2.90;2.17;;;;;;;;;;5066191;28;20667;-76
2022/05/13 11:29:35;;;;;;;2.63;2.20;;;;;;;;;;5064598;28;20461;-76
2022/05/13 11:32:25;;;;;;;2.00;1.87;;;;;;;;;;5065708;28;20444;-76
2022/05/13 11:35:02;;;;;;;2.33;2.13;;;;;;;;;;5050056;28;20973;-75
2022/05/13 11:37:32;;;;;;;1.80;1.70;;;;;;;;;;5064310;28;20570;-76
2022/05/13 11:39:58;;;;;;;2.97;2.20;;;;;;;;;;5069520;28;20428;-73
2022/05/13 11:42:33;;;;;;;1.87;1.70;;;;;;;;;;5065918;28;20426;-78
2022/05/13 11:45:09;;;;;;;8.40;2.30;;;;;;;;;;5065134;28;20194;-76
2022/05/13 11:47:35;;;;;;;3.70;2.67;;;;;;;;;;5067268;28;20439;-79
2022/05/13 11:50:01;;;;;;;4.13;1.80;;;;;;;;;;5067188;28;20469;-77
2022/05/13 11:52:28;;;;;;;3.70;2.03;;;;;;;;;;5066036;28;20191;-76
2022/05/13 11:55:30;;;;;;;5.10;2.30;;;;;;;;;;5068827;28;20541;-68
2022/05/13 11:57:56;;;;;;;2.30;1.80;;;;;;;;;;5026471;28;20981;-73
2022/05/13 12:00:25;;;;;;;2.97;2.03;;;;;;;;;;5057536;28;20445;-74
2022/05/13 12:02:53;;;;;;;3.60;2.27;;;;;;;;;;5067506;28;20955;-76
2022/05/13 12:05:19;;;;;;;6.63;2.37;;;;;;;;;;5068067;28;20440;-77
2022/05/13 12:07:52;;;;;;;2.63;1.57;;;;;;;;;;5067503;28;20429;-75
2022/05/13 12:10:23;;;;;;;2.83;2.57;;;;;;;;;;5068875;28;20214;-73
2022/05/13 12:12:49;;;;;;;5.27;2.60;;;;;;;;;;5067099;28;20442;-73
2022/05/13 12:15:31;;;;;;;8.57;2.33;;;;;;;;;;5068835;28;20502;-72
2022/05/13 12:18:12;;;;;;;2.80;2.43;;;;;;;;;;5068292;28;21075;-73
2022/05/13 12:20:49;;;;;;;8.10;2.77;;;;;;;;;;5067674;28;20465;-76
2022/05/13 12:23:21;;;;;;;3.17;2.30;;;;;;;;;;5069000;28;20467;-72
2022/05/13 12:25:52;;;;;;;6.17;2.70;;;;;;;;;;5063159;28;20434;-75
2022/05/13 12:28:17;;;;;;;5.27;2.93;;;;;;;;;;5069236;28;20421;-73
2022/05/13 12:30:45;;;;;;;6.83;2.50;;;;;;;;;;5067838;28;20500;-75
2022/05/13 12:33:20;;;;;;;4.73;2.60;;;;;;;;;;5064846;28;20431;-73
2022/05/13 12:38:55;;;;;;;6.93;3.30;;;;;;;;;;5065362;28;20455;-73
2022/05/13 12:41:24;;;;;;;2.60;2.40;;;;;;;;;;5062926;28;20447;-74
2022/05/13 12:43:53;;;;;;;7.43;3.27;;;;;;;;;;5069655;28;21475;-73
2022/05/13 12:46:38;;;;;;;3.47;3.30;;;;;;;;;;5069947;28;20425;-73
2022/05/13 12:49:09;;;;;;;3.53;3.00;;;;;;;;;;5070217;28;20526;-75
2022/05/13 12:51:41;;;;;;;14.10;2.67;;;;;;;;;;5068616;28;20534;-74
2022/05/13 12:54:07;;;;;;;5.37;3.23;;;;;;;;;;5071301;28;20421;-73
2022/05/13 12:56:36;;;;;;;6.53;3.77;;;;;;;;;;5069375;28;20432;-75
2022/05/13 12:59:04;;;;;;;7.93;2.70;;;;;;;;;;5070137;28;20421;-72
2022/05/13 13:01:31;;;;;;;5.83;2.80;;;;;;;;;;5071014;28;20479;-73
2022/05/13 13:03:57;;;;;;;3.50;2.60;;;;;;;;;;5067700;28;20433;-72
2022/05/13 13:06:25;;;;;;;2.13;1.93;;;;;;;;;;5070233;28;20495;-74
2022/05/13 13:08:52;;;;;;;2.17;2.07;;;;;;;;;;5071268;28;20486;-73
2022/05/13 13:11:27;;;;;;;1.80;1.80;;;;;;;;;;5070478;28;20851;-73
2022/05/13 13:14:12;;;;;;;8.33;5.93;;;;;;;;;;5067649;28;20436;-74
2022/05/13 13:16:48;;;;;;;3.97;2.93;;;;;;;;;;5067342;28;20585;-73
2022/05/13 13:19:24;;;;;;;3.07;2.63;;;;;;;;;;5068804;28;20444;-73
2022/05/13 13:21:55;;;;;;;7.67;2.90;;;;;;;;;;5072173;28;20420;-76
2022/05/13 13:24:24;;;;;;;3.10;1.90;;;;;;;;;;5068595;28;20925;-74
2022/05/13 13:26:51;;;;;;;2.60;2.40;;;;;;;;;;5071482;28;20421;-74
2022/05/13 13:29:44;;;;;;;4.50;2.50;;;;;;;;;;5069440;28;20432;-75
2022/05/13 13:32:14;;;;;;;10.47;2.80;;;;;;;;;;5069759;28;20577;-76
2022/05/13 13:34:42;;;;;;;4.23;2.33;;;;;;;;;;5068101;28;20432;-75
2022/05/13 13:37:10;;;;;;;2.73;2.60;;;;;;;;;;5069621;28;21562;-77
2022/05/13 13:39:36;;;;;;;2.40;2.20;;;;;;;;;;5071131;28;20520;-74
2022/05/13 13:42:07;;;;;;;2.10;2.10;;;;;;;;;;5072060;28;20464;-76
2022/05/13 13:44:34;;;;;;;6.90;3.00;;;;;;;;;;5066437;28;20434;-73
2022/05/13 13:47:00;;;;;;;8.80;3.00;;;;;;;;;;5066498;28;20451;-77
2022/05/13 13:49:26;;;;;;;7.07;2.57;;;;;;;;;;5068947;28;20499;-78
2022/05/13 13:51:54;;;;;;;6.73;2.20;;;;;;;;;;5067915;28;21004;-77
2022/05/13 13:54:25;;;;;;;7.43;3.37;;;;;;;;;;5064028;28;20203;-76
2022/05/13 13:57:06;;;;;;;3.90;2.07;;;;;;;;;;5069773;28;20422;-74
2022/05/13 13:59:35;;;;;;;2.27;2.17;;;;;;;;;;5070636;28;20433;-74
2022/05/13 14:02:03;;;;;;;4.20;2.40;;;;;;;;;;5066401;28;20425;-76
2022/05/13 14:04:30;;;;;;;13.30;3.50;;;;;;;;;;5071044;28;20420;-75
2022/05/13 14:06:57;;;;;;;5.93;3.17;;;;;;;;;;5069581;28;20495;-74
2022/05/13 14:09:38;;;;;;;3.30;2.60;;;;;;;;;;5070982;28;20453;-73
2022/05/13 14:12:05;;;;;;;5.93;3.00;;;;;;;;;;5051512;28;20464;-78
2022/05/13 14:14:32;;;;;;;5.50;1.50;;;;;;;;;;5067904;28;20433;-73
2022/05/13 14:17:01;;;;;;;3.07;2.67;;;;;;;;;;5070338;28;20437;-77
2022/05/13 14:19:28;;;;;;;3.93;1.97;;;;;;;;;;5069729;28;20508;-74
2022/05/13 14:21:59;;;;;;;3.57;2.70;;;;;;;;;;5065652;28;20433;-76
2022/05/13 14:24:32;;;;;;;3.23;2.23;;;;;;;;;;5070258;28;20929;-76
2022/05/13 14:27:00;;;;;;;2.17;2.00;;;;;;;;;;5070168;28;20444;-78
2022/05/13 14:29:31;;;;;;;5.07;2.77;;;;;;;;;;5066184;28;20425;-75
2022/05/13 14:32:03;;;;;;;6.00;3.30;;;;;;;;;;5068158;28;20496;-75
2022/05/13 14:34:29;;;;;;;1.80;1.67;;;;;;;;;;5069330;28;20475;-77
2022/05/13 14:36:56;;;;;;;9.40;3.20;;;;;;;;;;5065881;28;20825;-80
2022/05/13 14:42:14;;;;;;;2.73;2.17;;;;;;;;;;5067257;28;20699;-75
2022/05/13 14:44:42;;;;;;;4.80;2.13;;;;;;;;;;5067547;28;20445;-75
2022/05/13 14:47:15;;;;;;;3.03;2.10;;;;;;;;;;5066240;28;20422;-73
2022/05/13 14:49:41;;;;;;;4.60;2.70;;;;;;;;;;5067652;28;20485;-77
2022/05/13 14:52:07;;;;;;;5.27;2.70;;;;;;;;;;5064797;28;20433;-76
2022/05/13 14:54:37;;;;;;;4.93;2.70;;;;;;;;;;5069373;28;20554;-77
2022/05/13 14:57:05;;;;;;;3.90;2.77;;;;;;;;;;5064012;28;20433;-74
2022/05/13 14:59:36;;;;;;;2.90;2.70;;;;;;;;;;5070437;28;20512;-76
2022/05/13 15:02:03;;;;;;;5.30;2.60;;;;;;;;;;5067812;28;20995;-76
2022/05/13 15:04:31;;;;;;;3.07;2.93;;;;;;;;;;5066876;28;20434;-75
2022/05/13 15:06:57;;;;;;;3.53;2.30;;;;;;;;;;5066117;28;20499;-77
2022/05/13 15:09:28;;;;;;;4.70;3.10;;;;;;;;;;5066381;28;20995;-76
2022/05/13 15:12:04;;;;;;;3.30;2.10;;;;;;;;;;5069144;28;20472;-76
2022/05/13 15:14:30;;;;;;;13.23;2.93;;;;;;;;;;5066799;28;20835;-75
2022/05/13 15:16:57;;;;;;;2.90;2.70;;;;;;;;;;5070008;28;20491;-74
2022/05/13 15:19:30;;;;;;;6.93;3.30;;;;;;;;;;5068389;28;20460;-77
2022/05/13 15:22:07;;;;;;;6.50;2.57;;;;;;;;;;5064451;28;20563;-77